sensor_id;sensor_type;location;lat;lon;timestamp;P1;durP1;ratioP1;P2;durP2;ratioP2
54917;SDS011;40818;50.562;7.454;2023-02-28T00:00:09;5.72;;;0.30;;
54917;SDS011;40818;50.562;7.454;2023-02-28T00:10:18;0.95;;;0.22;;
54917;SDS011;40818;50.562;7.454;2023-02-28T00:20:23;3.53;;;0.30;;
54917;SDS011;40818;50.562;7.454;2023-02-28T00:30:32;1.95;;;0.30;;
54917;SDS011;40818;50.562;7.454;2023-02-28T00:40:38;0.98;;;0.22;;
54917;SDS011;40818;50.562;7.454;2023-02-28T00:50:44;2.83;;;0.20;;
54917;SDS011;40818;50.562;7.454;2023-02-28T01:00:51;3.60;;;0.25;;
54917;SDS011;40818;50.562;7.454;2023-02-28T01:10:58;6.95;;;0.43;;
54917;SDS011;40818;50.562;7.454;2023-02-28T01:21:11;3.20;;;0.30;;
54917;SDS011;40818;50.562;7.454;2023-02-28T01:31:19;1.58;;;0.20;;
54917;SDS011;40818;50.562;7.454;2023-02-28T01:41:24;2.03;;;0.30;;
54917;SDS011;40818;50.562;7.454;2023-02-28T01:51:33;1.63;;;0.38;;
54917;SDS011;40818;50.562;7.454;2023-02-28T02:01:40;1.40;;;0.30;;
54917;SDS011;40818;50.562;7.454;2023-02-28T02:11:47;1.10;;;0.30;;
54917;SDS011;40818;50.562;7.454;2023-02-28T02:22:00;1.80;;;0.40;;
54917;SDS011;40818;50.562;7.454;2023-02-28T02:42:58;1.70;;;0.40;;
54917;SDS011;40818;50.562;7.454;2023-02-28T02:53:07;3.45;;;0.30;;
54917;SDS011;40818;50.562;7.454;2023-02-28T03:03:15;1.73;;;0.40;;
54917;SDS011;40818;50.562;7.454;2023-02-28T03:13:35;1.42;;;0.30;;
54917;SDS011;40818;50.562;7.454;2023-02-28T03:23:50;2.55;;;0.32;;
54917;SDS011;40818;50.562;7.454;2023-02-28T03:34:00;1.45;;;0.40;;
54917;SDS011;40818;50.562;7.454;2023-02-28T03:44:10;2.10;;;0.30;;
54917;SDS011;40818;50.562;7.454;2023-02-28T03:54:19;1.92;;;0.40;;
54917;SDS011;40818;50.562;7.454;2023-02-28T04:04:29;1.13;;;0.30;;
54917;SDS011;40818;50.562;7.454;2023-02-28T04:14:32;8.32;;;0.40;;
54917;SDS011;40818;50.562;7.454;2023-02-28T04:24:38;1.33;;;0.38;;
54917;SDS011;40818;50.562;7.454;2023-02-28T04:34:43;1.10;;;0.40;;
54917;SDS011;40818;50.562;7.454;2023-02-28T04:44:49;2.50;;;0.38;;
54917;SDS011;40818;50.562;7.454;2023-02-28T04:54:52;1.60;;;0.40;;
54917;SDS011;40818;50.562;7.454;2023-02-28T05:04:58;1.65;;;0.40;;
54917;SDS011;40818;50.562;7.454;2023-02-28T05:15:02;1.92;;;0.30;;
54917;SDS011;40818;50.562;7.454;2023-02-28T05:25:08;1.40;;;0.30;;
54917;SDS011;40818;50.562;7.454;2023-02-28T05:35:15;1.48;;;0.50;;
54917;SDS011;40818;50.562;7.454;2023-02-28T05:45:21;1.15;;;0.22;;
54917;SDS011;40818;50.562;7.454;2023-02-28T05:55:24;2.08;;;0.50;;
54917;SDS011;40818;50.562;7.454;2023-02-28T06:05:30;1.13;;;0.40;;
54917;SDS011;40818;50.562;7.454;2023-02-28T06:15:34;1.23;;;0.38;;
54917;SDS011;40818;50.562;7.454;2023-02-28T06:25:40;1.90;;;0.50;;
54917;SDS011;40818;50.562;7.454;2023-02-28T06:35:49;1.98;;;0.50;;
54917;SDS011;40818;50.562;7.454;2023-02-28T06:45:56;1.50;;;0.40;;
54917;SDS011;40818;50.562;7.454;2023-02-28T06:56:03;3.92;;;0.47;;
54917;SDS011;40818;50.562;7.454;2023-02-28T07:06:09;2.47;;;0.50;;
54917;SDS011;40818;50.562;7.454;2023-02-28T07:16:13;1.80;;;0.40;;
54917;SDS011;40818;50.562;7.454;2023-02-28T07:26:19;3.08;;;0.40;;
54917;SDS011;40818;50.562;7.454;2023-02-28T07:36:23;2.33;;;0.40;;
54917;SDS011;40818;50.562;7.454;2023-02-28T07:46:30;4.43;;;0.50;;
54917;SDS011;40818;50.562;7.454;2023-02-28T07:56:35;2.78;;;0.40;;
54917;SDS011;40818;50.562;7.454;2023-02-28T08:06:41;1.17;;;0.30;;
54917;SDS011;40818;50.562;7.454;2023-02-28T08:16:45;1.70;;;0.47;;
54917;SDS011;40818;50.562;7.454;2023-02-28T08:26:51;2.53;;;0.40;;
54917;SDS011;40818;50.562;7.454;2023-02-28T08:36:54;0.98;;;0.30;;
54917;SDS011;40818;50.562;7.454;2023-02-28T08:47:00;2.40;;;0.43;;
54917;SDS011;40818;50.562;7.454;2023-02-28T08:57:04;1.73;;;0.45;;
54917;SDS011;40818;50.562;7.454;2023-02-28T09:07:10;2.50;;;0.60;;
54917;SDS011;40818;50.562;7.454;2023-02-28T09:17:14;4.55;;;0.40;;
54917;SDS011;40818;50.562;7.454;2023-02-28T09:27:20;1.33;;;0.30;;
54917;SDS011;40818;50.562;7.454;2023-02-28T09:37:23;0.93;;;0.28;;
54917;SDS011;40818;50.562;7.454;2023-02-28T09:47:34;2.03;;;0.38;;
54917;SDS011;40818;50.562;7.454;2023-02-28T09:57:41;3.05;;;0.40;;
54917;SDS011;40818;50.562;7.454;2023-02-28T10:07:51;1.02;;;0.30;;
54917;SDS011;40818;50.562;7.454;2023-02-28T10:18:06;1.50;;;0.40;;
54917;SDS011;40818;50.562;7.454;2023-02-28T10:28:17;2.80;;;0.25;;
54917;SDS011;40818;50.562;7.454;2023-02-28T10:38:22;1.45;;;0.30;;
54917;SDS011;40818;50.562;7.454;2023-02-28T10:48:32;1.02;;;0.30;;
54917;SDS011;40818;50.562;7.454;2023-02-28T11:08:52;1.75;;;0.40;;
54917;SDS011;40818;50.562;7.454;2023-02-28T11:18:57;0.82;;;0.30;;
54917;SDS011;40818;50.562;7.454;2023-02-28T11:29:08;2.38;;;0.40;;
54917;SDS011;40818;50.562;7.454;2023-02-28T11:39:13;2.90;;;0.50;;
54917;SDS011;40818;50.562;7.454;2023-02-28T11:49:28;1.00;;;0.30;;
54917;SDS011;40818;50.562;7.454;2023-02-28T11:59:42;1.08;;;0.40;;
54917;SDS011;40818;50.562;7.454;2023-02-28T12:10:05;1.15;;;0.40;;
54917;SDS011;40818;50.562;7.454;2023-02-28T12:20:24;2.65;;;0.40;;
54917;SDS011;40818;50.562;7.454;2023-02-28T12:30:37;1.33;;;0.40;;
54917;SDS011;40818;50.562;7.454;2023-02-28T12:40:47;1.65;;;0.50;;
54917;SDS011;40818;50.562;7.454;2023-02-28T12:50:58;1.17;;;0.40;;
54917;SDS011;40818;50.562;7.454;2023-02-28T13:01:17;2.65;;;0.40;;
54917;SDS011;40818;50.562;7.454;2023-02-28T13:11:50;1.63;;;0.50;;
54917;SDS011;40818;50.562;7.454;2023-02-28T13:21:56;2.35;;;0.50;;
54917;SDS011;40818;50.562;7.454;2023-02-28T13:42:33;1.10;;;0.40;;
54917;SDS011;40818;50.562;7.454;2023-02-28T13:52:40;2.20;;;0.50;;
54917;SDS011;40818;50.562;7.454;2023-02-28T14:13:42;1.95;;;0.50;;
54917;SDS011;40818;50.562;7.454;2023-02-28T14:24:03;2.55;;;0.60;;
54917;SDS011;40818;50.562;7.454;2023-02-28T14:34:37;2.63;;;0.50;;
54917;SDS011;40818;50.562;7.454;2023-02-28T14:44:53;1.70;;;0.60;;
54917;SDS011;40818;50.562;7.454;2023-02-28T14:55:00;2.20;;;0.60;;
54917;SDS011;40818;50.562;7.454;2023-02-28T15:05:22;3.45;;;0.93;;
54917;SDS011;40818;50.562;7.454;2023-02-28T15:15:33;2.03;;;0.60;;
54917;SDS011;40818;50.562;7.454;2023-02-28T15:25:44;2.28;;;0.60;;
54917;SDS011;40818;50.562;7.454;2023-02-28T15:35:50;2.53;;;0.70;;
54917;SDS011;40818;50.562;7.454;2023-02-28T15:46:06;1.88;;;0.60;;
54917;SDS011;40818;50.562;7.454;2023-02-28T15:56:19;2.45;;;0.70;;
54917;SDS011;40818;50.562;7.454;2023-02-28T16:06:32;4.55;;;0.80;;
54917;SDS011;40818;50.562;7.454;2023-02-28T16:16:44;2.20;;;0.50;;
54917;SDS011;40818;50.562;7.454;2023-02-28T16:26:50;1.55;;;0.57;;
54917;SDS011;40818;50.562;7.454;2023-02-28T16:36:59;2.08;;;0.60;;
54917;SDS011;40818;50.562;7.454;2023-02-28T16:47:03;6.50;;;0.70;;
54917;SDS011;40818;50.562;7.454;2023-02-28T16:57:13;2.88;;;0.60;;
54917;SDS011;40818;50.562;7.454;2023-02-28T17:07:22;3.45;;;0.65;;
54917;SDS011;40818;50.562;7.454;2023-02-28T17:17:28;2.92;;;0.70;;
54917;SDS011;40818;50.562;7.454;2023-02-28T17:27:32;2.78;;;0.60;;
54917;SDS011;40818;50.562;7.454;2023-02-28T17:37:38;2.45;;;0.65;;
54917;SDS011;40818;50.562;7.454;2023-02-28T17:47:42;2.53;;;0.60;;
54917;SDS011;40818;50.562;7.454;2023-02-28T17:57:51;2.35;;;0.60;;
54917;SDS011;40818;50.562;7.454;2023-02-28T18:07:54;2.17;;;0.60;;
54917;SDS011;40818;50.562;7.454;2023-02-28T18:18:01;4.72;;;0.60;;
54917;SDS011;40818;50.562;7.454;2023-02-28T18:28:06;4.53;;;0.75;;
54917;SDS011;40818;50.562;7.454;2023-02-28T18:38:13;3.80;;;0.77;;
54917;SDS011;40818;50.562;7.454;2023-02-28T18:48:18;6.13;;;0.90;;
54917;SDS011;40818;50.562;7.454;2023-02-28T18:58:25;18.70;;;1.05;;
54917;SDS011;40818;50.562;7.454;2023-02-28T19:08:28;3.60;;;0.80;;
54917;SDS011;40818;50.562;7.454;2023-02-28T19:18:34;2.35;;;0.68;;
54917;SDS011;40818;50.562;7.454;2023-02-28T19:28:38;2.67;;;0.80;;
54917;SDS011;40818;50.562;7.454;2023-02-28T19:38:44;3.10;;;0.60;;
54917;SDS011;40818;50.562;7.454;2023-02-28T19:48:48;4.28;;;0.70;;
54917;SDS011;40818;50.562;7.454;2023-02-28T19:58:58;3.78;;;0.80;;
54917;SDS011;40818;50.562;7.454;2023-02-28T20:09:02;2.47;;;0.68;;
54917;SDS011;40818;50.562;7.454;2023-02-28T20:19:08;2.67;;;0.80;;
54917;SDS011;40818;50.562;7.454;2023-02-28T20:29:12;2.38;;;0.70;;
54917;SDS011;40818;50.562;7.454;2023-02-28T20:39:18;8.10;;;0.88;;
54917;SDS011;40818;50.562;7.454;2023-02-28T20:49:21;7.32;;;1.00;;
54917;SDS011;40818;50.562;7.454;2023-02-28T20:59:28;11.45;;;1.15;;
54917;SDS011;40818;50.562;7.454;2023-02-28T21:09:31;4.47;;;0.98;;
54917;SDS011;40818;50.562;7.454;2023-02-28T21:19:37;8.35;;;1.30;;
54917;SDS011;40818;50.562;7.454;2023-02-28T21:29:41;6.93;;;0.90;;
54917;SDS011;40818;50.562;7.454;2023-02-28T21:39:46;3.63;;;1.00;;
54917;SDS011;40818;50.562;7.454;2023-02-28T21:49:50;11.43;;;1.00;;
54917;SDS011;40818;50.562;7.454;2023-02-28T21:59:56;4.60;;;1.00;;
54917;SDS011;40818;50.562;7.454;2023-02-28T22:09:59;4.13;;;1.00;;
54917;SDS011;40818;50.562;7.454;2023-02-28T22:20:06;5.32;;;1.20;;
54917;SDS011;40818;50.562;7.454;2023-02-28T22:30:12;4.55;;;1.10;;
54917;SDS011;40818;50.562;7.454;2023-02-28T22:40:18;6.38;;;1.13;;
54917;SDS011;40818;50.562;7.454;2023-02-28T22:50:21;5.35;;;1.30;;
54917;SDS011;40818;50.562;7.454;2023-02-28T23:00:28;5.80;;;1.52;;
54917;SDS011;40818;50.562;7.454;2023-02-28T23:10:31;6.78;;;1.40;;
54917;SDS011;40818;50.562;7.454;2023-02-28T23:20:37;4.10;;;1.10;;
54917;SDS011;40818;50.562;7.454;2023-02-28T23:30:41;4.93;;;1.40;;
54917;SDS011;40818;50.562;7.454;2023-02-28T23:40:47;4.85;;;1.48;;
54917;SDS011;40818;50.562;7.454;2023-02-28T23:50:51;9.30;;;1.30;;
